sensor_id;sensor_type;location;lat;lon;timestamp;P1;durP1;ratioP1;P2;durP2;ratioP2
15055;SDS011;7626;42.674;23.284;2022-11-20T00:01:11;8.60;;;2.10;;
15055;SDS011;7626;42.674;23.284;2022-11-20T00:03:39;8.47;;;1.80;;
15055;SDS011;7626;42.674;23.284;2022-11-20T00:06:07;9.00;;;2.40;;
15055;SDS011;7626;42.674;23.284;2022-11-20T00:08:36;11.70;;;2.80;;
15055;SDS011;7626;42.674;23.284;2022-11-20T00:11:04;8.90;;;2.10;;
15055;SDS011;7626;42.674;23.284;2022-11-20T00:13:33;8.07;;;2.10;;
15055;SDS011;7626;42.674;23.284;2022-11-20T00:16:01;9.33;;;1.97;;
15055;SDS011;7626;42.674;23.284;2022-11-20T00:18:29;7.87;;;2.10;;
15055;SDS011;7626;42.674;23.284;2022-11-20T00:21:00;7.53;;;1.93;;
15055;SDS011;7626;42.674;23.284;2022-11-20T00:23:28;8.13;;;2.33;;
15055;SDS011;7626;42.674;23.284;2022-11-20T00:25:56;5.27;;;2.10;;
15055;SDS011;7626;42.674;23.284;2022-11-20T00:28:23;4.00;;;1.67;;
15055;SDS011;7626;42.674;23.284;2022-11-20T00:30:51;7.83;;;1.97;;
15055;SDS011;7626;42.674;23.284;2022-11-20T00:33:18;4.87;;;1.63;;
15055;SDS011;7626;42.674;23.284;2022-11-20T00:35:45;6.17;;;1.70;;
15055;SDS011;7626;42.674;23.284;2022-11-20T00:38:12;3.53;;;1.50;;
15055;SDS011;7626;42.674;23.284;2022-11-20T00:40:40;3.07;;;1.50;;
15055;SDS011;7626;42.674;23.284;2022-11-20T00:43:06;4.37;;;1.50;;
15055;SDS011;7626;42.674;23.284;2022-11-20T00:45:33;2.90;;;1.40;;
15055;SDS011;7626;42.674;23.284;2022-11-20T00:48:01;2.43;;;1.30;;
15055;SDS011;7626;42.674;23.284;2022-11-20T00:50:28;10.10;;;2.00;;
15055;SDS011;7626;42.674;23.284;2022-11-20T00:52:55;9.43;;;2.07;;
15055;SDS011;7626;42.674;23.284;2022-11-20T00:55:21;9.37;;;2.07;;
15055;SDS011;7626;42.674;23.284;2022-11-20T00:57:48;6.33;;;1.70;;
15055;SDS011;7626;42.674;23.284;2022-11-20T01:00:15;5.97;;;1.70;;
15055;SDS011;7626;42.674;23.284;2022-11-20T01:02:42;9.23;;;1.97;;
15055;SDS011;7626;42.674;23.284;2022-11-20T01:05:10;3.80;;;1.50;;
15055;SDS011;7626;42.674;23.284;2022-11-20T01:07:37;6.17;;;1.77;;
15055;SDS011;7626;42.674;23.284;2022-11-20T01:10:03;3.77;;;1.70;;
15055;SDS011;7626;42.674;23.284;2022-11-20T01:12:31;3.70;;;1.63;;
15055;SDS011;7626;42.674;23.284;2022-11-20T01:14:58;4.27;;;1.43;;
15055;SDS011;7626;42.674;23.284;2022-11-20T01:17:24;3.87;;;1.77;;
15055;SDS011;7626;42.674;23.284;2022-11-20T01:19:51;3.87;;;1.63;;
15055;SDS011;7626;42.674;23.284;2022-11-20T01:22:19;3.40;;;1.53;;
15055;SDS011;7626;42.674;23.284;2022-11-20T01:24:46;2.07;;;1.40;;
15055;SDS011;7626;42.674;23.284;2022-11-20T01:27:13;3.10;;;1.33;;
15055;SDS011;7626;42.674;23.284;2022-11-20T01:29:40;2.30;;;1.50;;
15055;SDS011;7626;42.674;23.284;2022-11-20T01:32:08;3.97;;;1.30;;
15055;SDS011;7626;42.674;23.284;2022-11-20T01:34:35;2.30;;;1.77;;
15055;SDS011;7626;42.674;23.284;2022-11-20T01:37:01;3.33;;;1.67;;
15055;SDS011;7626;42.674;23.284;2022-11-20T01:39:29;3.83;;;1.60;;
15055;SDS011;7626;42.674;23.284;2022-11-20T01:41:56;2.40;;;1.57;;
15055;SDS011;7626;42.674;23.284;2022-11-20T01:44:43;3.67;;;1.57;;
15055;SDS011;7626;42.674;23.284;2022-11-20T01:47:16;2.93;;;1.37;;
15055;SDS011;7626;42.674;23.284;2022-11-20T01:49:47;2.47;;;1.47;;
15055;SDS011;7626;42.674;23.284;2022-11-20T01:52:18;1.97;;;1.23;;
15055;SDS011;7626;42.674;23.284;2022-11-20T01:54:51;1.50;;;1.27;;
15055;SDS011;7626;42.674;23.284;2022-11-20T01:57:22;2.27;;;1.43;;
15055;SDS011;7626;42.674;23.284;2022-11-20T01:59:51;2.50;;;1.40;;
15055;SDS011;7626;42.674;23.284;2022-11-20T02:02:26;2.00;;;1.33;;
15055;SDS011;7626;42.674;23.284;2022-11-20T02:04:54;2.13;;;1.20;;
15055;SDS011;7626;42.674;23.284;2022-11-20T02:07:26;1.27;;;1.17;;
15055;SDS011;7626;42.674;23.284;2022-11-20T02:09:56;1.33;;;1.17;;
15055;SDS011;7626;42.674;23.284;2022-11-20T02:12:22;2.80;;;1.27;;
15055;SDS011;7626;42.674;23.284;2022-11-20T02:15:07;2.70;;;1.23;;
15055;SDS011;7626;42.674;23.284;2022-11-20T02:17:34;1.70;;;1.20;;
15055;SDS011;7626;42.674;23.284;2022-11-20T02:20:01;1.80;;;1.30;;
15055;SDS011;7626;42.674;23.284;2022-11-20T02:22:31;1.43;;;1.17;;
15055;SDS011;7626;42.674;23.284;2022-11-20T02:25:05;2.37;;;1.20;;
15055;SDS011;7626;42.674;23.284;2022-11-20T02:27:34;1.97;;;1.17;;
15055;SDS011;7626;42.674;23.284;2022-11-20T02:30:02;1.30;;;1.20;;
15055;SDS011;7626;42.674;23.284;2022-11-20T02:32:33;1.77;;;1.17;;
15055;SDS011;7626;42.674;23.284;2022-11-20T02:35:06;2.20;;;1.33;;
15055;SDS011;7626;42.674;23.284;2022-11-20T02:37:37;1.83;;;1.27;;
15055;SDS011;7626;42.674;23.284;2022-11-20T02:40:09;1.67;;;1.27;;
15055;SDS011;7626;42.674;23.284;2022-11-20T02:42:36;2.10;;;1.10;;
15055;SDS011;7626;42.674;23.284;2022-11-20T02:45:04;1.50;;;1.23;;
15055;SDS011;7626;42.674;23.284;2022-11-20T02:47:33;1.40;;;1.30;;
15055;SDS011;7626;42.674;23.284;2022-11-20T02:50:00;2.30;;;1.20;;
15055;SDS011;7626;42.674;23.284;2022-11-20T02:52:26;1.47;;;1.03;;
15055;SDS011;7626;42.674;23.284;2022-11-20T02:54:53;2.20;;;1.20;;
15055;SDS011;7626;42.674;23.284;2022-11-20T02:57:21;1.90;;;1.40;;
15055;SDS011;7626;42.674;23.284;2022-11-20T02:59:48;2.27;;;1.27;;
15055;SDS011;7626;42.674;23.284;2022-11-20T03:02:16;2.20;;;1.27;;
15055;SDS011;7626;42.674;23.284;2022-11-20T03:04:43;2.17;;;1.40;;
15055;SDS011;7626;42.674;23.284;2022-11-20T03:07:10;2.30;;;1.40;;
15055;SDS011;7626;42.674;23.284;2022-11-20T03:09:36;2.27;;;1.40;;
15055;SDS011;7626;42.674;23.284;2022-11-20T03:12:04;2.43;;;1.50;;
15055;SDS011;7626;42.674;23.284;2022-11-20T03:14:34;2.57;;;1.40;;
15055;SDS011;7626;42.674;23.284;2022-11-20T03:17:00;1.53;;;1.37;;
15055;SDS011;7626;42.674;23.284;2022-11-20T03:19:27;3.57;;;1.80;;
15055;SDS011;7626;42.674;23.284;2022-11-20T03:21:54;3.83;;;1.37;;
15055;SDS011;7626;42.674;23.284;2022-11-20T03:24:21;2.00;;;1.50;;
15055;SDS011;7626;42.674;23.284;2022-11-20T03:26:48;2.23;;;1.47;;
15055;SDS011;7626;42.674;23.284;2022-11-20T03:29:14;3.10;;;1.50;;
15055;SDS011;7626;42.674;23.284;2022-11-20T03:31:43;2.40;;;1.47;;
15055;SDS011;7626;42.674;23.284;2022-11-20T03:34:11;3.23;;;1.50;;
15055;SDS011;7626;42.674;23.284;2022-11-20T03:36:38;2.03;;;1.33;;
15055;SDS011;7626;42.674;23.284;2022-11-20T03:39:06;2.00;;;1.60;;
15055;SDS011;7626;42.674;23.284;2022-11-20T03:41:35;3.37;;;1.50;;
15055;SDS011;7626;42.674;23.284;2022-11-20T03:44:05;3.40;;;1.40;;
15055;SDS011;7626;42.674;23.284;2022-11-20T03:46:33;1.77;;;1.30;;
15055;SDS011;7626;42.674;23.284;2022-11-20T03:49:02;1.60;;;1.20;;
15055;SDS011;7626;42.674;23.284;2022-11-20T03:51:29;2.80;;;1.70;;
15055;SDS011;7626;42.674;23.284;2022-11-20T03:53:57;2.00;;;1.40;;
15055;SDS011;7626;42.674;23.284;2022-11-20T03:56:27;2.37;;;1.20;;
15055;SDS011;7626;42.674;23.284;2022-11-20T03:58:55;2.43;;;1.30;;
15055;SDS011;7626;42.674;23.284;2022-11-20T04:01:22;3.37;;;1.50;;
15055;SDS011;7626;42.674;23.284;2022-11-20T04:03:51;1.67;;;1.20;;
15055;SDS011;7626;42.674;23.284;2022-11-20T04:06:21;1.50;;;1.20;;
15055;SDS011;7626;42.674;23.284;2022-11-20T04:08:49;2.27;;;1.40;;
15055;SDS011;7626;42.674;23.284;2022-11-20T04:11:16;1.50;;;1.30;;
15055;SDS011;7626;42.674;23.284;2022-11-20T04:13:45;2.40;;;1.23;;
15055;SDS011;7626;42.674;23.284;2022-11-20T04:16:15;1.93;;;1.30;;
15055;SDS011;7626;42.674;23.284;2022-11-20T04:18:42;2.07;;;1.40;;
15055;SDS011;7626;42.674;23.284;2022-11-20T04:21:10;2.53;;;1.40;;
15055;SDS011;7626;42.674;23.284;2022-11-20T04:23:38;2.10;;;1.17;;
15055;SDS011;7626;42.674;23.284;2022-11-20T04:26:07;2.27;;;1.47;;
15055;SDS011;7626;42.674;23.284;2022-11-20T04:28:36;1.67;;;1.30;;
15055;SDS011;7626;42.674;23.284;2022-11-20T04:31:04;3.33;;;1.43;;
15055;SDS011;7626;42.674;23.284;2022-11-20T04:33:31;2.90;;;1.50;;
15055;SDS011;7626;42.674;23.284;2022-11-20T04:36:01;2.67;;;1.13;;
15055;SDS011;7626;42.674;23.284;2022-11-20T04:38:29;2.77;;;1.43;;
15055;SDS011;7626;42.674;23.284;2022-11-20T04:40:58;2.33;;;1.20;;
15055;SDS011;7626;42.674;23.284;2022-11-20T04:43:25;1.80;;;1.17;;
15055;SDS011;7626;42.674;23.284;2022-11-20T04:45:52;2.00;;;1.03;;
15055;SDS011;7626;42.674;23.284;2022-11-20T04:48:20;2.00;;;1.20;;
15055;SDS011;7626;42.674;23.284;2022-11-20T04:50:48;1.57;;;1.20;;
15055;SDS011;7626;42.674;23.284;2022-11-20T04:53:15;2.50;;;1.30;;
15055;SDS011;7626;42.674;23.284;2022-11-20T04:55:42;1.60;;;1.03;;
15055;SDS011;7626;42.674;23.284;2022-11-20T04:58:10;2.17;;;1.27;;
15055;SDS011;7626;42.674;23.284;2022-11-20T05:00:39;1.63;;;1.20;;
15055;SDS011;7626;42.674;23.284;2022-11-20T05:03:06;1.73;;;1.10;;
15055;SDS011;7626;42.674;23.284;2022-11-20T05:05:33;1.47;;;1.30;;
15055;SDS011;7626;42.674;23.284;2022-11-20T05:08:00;2.30;;;1.43;;
15055;SDS011;7626;42.674;23.284;2022-11-20T05:10:27;1.80;;;1.13;;
15055;SDS011;7626;42.674;23.284;2022-11-20T05:12:54;1.73;;;1.10;;
15055;SDS011;7626;42.674;23.284;2022-11-20T05:15:22;2.27;;;1.10;;
15055;SDS011;7626;42.674;23.284;2022-11-20T05:17:49;2.60;;;1.30;;
15055;SDS011;7626;42.674;23.284;2022-11-20T05:20:16;1.23;;;1.13;;
15055;SDS011;7626;42.674;23.284;2022-11-20T05:22:45;2.23;;;1.30;;
15055;SDS011;7626;42.674;23.284;2022-11-20T05:25:13;2.23;;;1.30;;
15055;SDS011;7626;42.674;23.284;2022-11-20T05:27:40;2.67;;;1.30;;
15055;SDS011;7626;42.674;23.284;2022-11-20T05:30:08;1.70;;;1.20;;
15055;SDS011;7626;42.674;23.284;2022-11-20T05:32:37;2.63;;;1.30;;
15055;SDS011;7626;42.674;23.284;2022-11-20T05:35:04;1.80;;;1.10;;
15055;SDS011;7626;42.674;23.284;2022-11-20T05:37:31;2.40;;;1.40;;
15055;SDS011;7626;42.674;23.284;2022-11-20T05:39:58;2.80;;;1.60;;
15055;SDS011;7626;42.674;23.284;2022-11-20T05:42:29;2.20;;;1.53;;
15055;SDS011;7626;42.674;23.284;2022-11-20T05:44:58;2.83;;;1.30;;
15055;SDS011;7626;42.674;23.284;2022-11-20T05:47:26;1.77;;;1.47;;
15055;SDS011;7626;42.674;23.284;2022-11-20T05:49:55;2.87;;;1.50;;
15055;SDS011;7626;42.674;23.284;2022-11-20T05:52:22;2.33;;;1.50;;
15055;SDS011;7626;42.674;23.284;2022-11-20T05:54:49;2.30;;;1.37;;
15055;SDS011;7626;42.674;23.284;2022-11-20T05:57:16;2.53;;;1.57;;
15055;SDS011;7626;42.674;23.284;2022-11-20T05:59:44;2.50;;;1.50;;
15055;SDS011;7626;42.674;23.284;2022-11-20T06:02:13;4.17;;;1.63;;
15055;SDS011;7626;42.674;23.284;2022-11-20T06:04:41;3.57;;;1.70;;
15055;SDS011;7626;42.674;23.284;2022-11-20T06:07:09;2.10;;;1.50;;
15055;SDS011;7626;42.674;23.284;2022-11-20T06:09:35;1.87;;;1.40;;
15055;SDS011;7626;42.674;23.284;2022-11-20T06:12:03;1.90;;;1.47;;
15055;SDS011;7626;42.674;23.284;2022-11-20T06:14:31;1.90;;;1.40;;
15055;SDS011;7626;42.674;23.284;2022-11-20T06:16:59;3.20;;;1.40;;
15055;SDS011;7626;42.674;23.284;2022-11-20T06:19:27;2.00;;;1.13;;
15055;SDS011;7626;42.674;23.284;2022-11-20T06:21:56;2.33;;;1.47;;
15055;SDS011;7626;42.674;23.284;2022-11-20T06:24:26;2.97;;;1.67;;
15055;SDS011;7626;42.674;23.284;2022-11-20T06:26:54;3.00;;;1.60;;
15055;SDS011;7626;42.674;23.284;2022-11-20T06:29:21;1.90;;;1.43;;
15055;SDS011;7626;42.674;23.284;2022-11-20T06:31:48;2.23;;;1.87;;
15055;SDS011;7626;42.674;23.284;2022-11-20T06:34:16;2.60;;;1.80;;
15055;SDS011;7626;42.674;23.284;2022-11-20T06:36:43;2.10;;;1.70;;
15055;SDS011;7626;42.674;23.284;2022-11-20T06:39:12;5.10;;;2.10;;
15055;SDS011;7626;42.674;23.284;2022-11-20T06:41:44;2.43;;;1.83;;
15055;SDS011;7626;42.674;23.284;2022-11-20T06:44:13;2.73;;;2.10;;
15055;SDS011;7626;42.674;23.284;2022-11-20T06:46:40;3.30;;;2.03;;
15055;SDS011;7626;42.674;23.284;2022-11-20T06:49:07;3.10;;;2.27;;
15055;SDS011;7626;42.674;23.284;2022-11-20T06:51:36;2.97;;;1.80;;
15055;SDS011;7626;42.674;23.284;2022-11-20T06:54:05;2.20;;;1.90;;
15055;SDS011;7626;42.674;23.284;2022-11-20T06:56:36;3.03;;;1.73;;
15055;SDS011;7626;42.674;23.284;2022-11-20T06:59:06;3.30;;;2.30;;
15055;SDS011;7626;42.674;23.284;2022-11-20T07:01:37;3.17;;;2.10;;
15055;SDS011;7626;42.674;23.284;2022-11-20T07:04:05;2.73;;;2.03;;
15055;SDS011;7626;42.674;23.284;2022-11-20T07:06:32;3.33;;;1.77;;
15055;SDS011;7626;42.674;23.284;2022-11-20T07:08:58;4.57;;;2.63;;
15055;SDS011;7626;42.674;23.284;2022-11-20T07:11:27;2.97;;;2.08;;
15055;SDS011;7626;42.674;23.284;2022-11-20T07:13:54;6.32;;;2.40;;
15055;SDS011;7626;42.674;23.284;2022-11-20T07:16:24;3.85;;;2.10;;
15055;SDS011;7626;42.674;23.284;2022-11-20T07:18:51;2.63;;;1.70;;
15055;SDS011;7626;42.674;23.284;2022-11-20T07:21:18;3.42;;;2.28;;
15055;SDS011;7626;42.674;23.284;2022-11-20T07:23:45;3.83;;;1.80;;
15055;SDS011;7626;42.674;23.284;2022-11-20T07:26:13;2.70;;;1.88;;
15055;SDS011;7626;42.674;23.284;2022-11-20T07:28:40;4.25;;;2.20;;
15055;SDS011;7626;42.674;23.284;2022-11-20T07:31:11;3.63;;;2.33;;
15055;SDS011;7626;42.674;23.284;2022-11-20T07:33:41;3.13;;;2.00;;
15055;SDS011;7626;42.674;23.284;2022-11-20T07:36:07;3.78;;;2.10;;
15055;SDS011;7626;42.674;23.284;2022-11-20T07:38:34;3.25;;;1.90;;
15055;SDS011;7626;42.674;23.284;2022-11-20T07:41:02;5.60;;;2.05;;
15055;SDS011;7626;42.674;23.284;2022-11-20T07:43:29;5.18;;;2.20;;
15055;SDS011;7626;42.674;23.284;2022-11-20T07:45:56;3.65;;;2.38;;
15055;SDS011;7626;42.674;23.284;2022-11-20T07:48:24;2.83;;;2.08;;
15055;SDS011;7626;42.674;23.284;2022-11-20T07:50:56;3.42;;;2.10;;
15055;SDS011;7626;42.674;23.284;2022-11-20T07:53:23;2.80;;;2.13;;
15055;SDS011;7626;42.674;23.284;2022-11-20T07:55:52;3.85;;;2.00;;
15055;SDS011;7626;42.674;23.284;2022-11-20T07:58:20;4.47;;;2.03;;
15055;SDS011;7626;42.674;23.284;2022-11-20T08:00:48;3.33;;;2.25;;
15055;SDS011;7626;42.674;23.284;2022-11-20T08:03:16;3.72;;;2.15;;
15055;SDS011;7626;42.674;23.284;2022-11-20T08:05:44;2.85;;;2.08;;
15055;SDS011;7626;42.674;23.284;2022-11-20T08:08:14;3.08;;;2.50;;
15055;SDS011;7626;42.674;23.284;2022-11-20T08:10:40;3.50;;;2.33;;
15055;SDS011;7626;42.674;23.284;2022-11-20T08:13:08;2.72;;;2.08;;
15055;SDS011;7626;42.674;23.284;2022-11-20T08:15:53;4.10;;;2.50;;
15055;SDS011;7626;42.674;23.284;2022-11-20T08:18:21;3.17;;;2.15;;
15055;SDS011;7626;42.674;23.284;2022-11-20T08:20:51;3.33;;;2.40;;
15055;SDS011;7626;42.674;23.284;2022-11-20T08:23:24;6.03;;;2.53;;
15055;SDS011;7626;42.674;23.284;2022-11-20T08:25:51;3.72;;;2.65;;
15055;SDS011;7626;42.674;23.284;2022-11-20T08:28:21;3.85;;;2.10;;
15055;SDS011;7626;42.674;23.284;2022-11-20T08:30:48;4.53;;;2.20;;
15055;SDS011;7626;42.674;23.284;2022-11-20T08:33:17;4.82;;;2.58;;
15055;SDS011;7626;42.674;23.284;2022-11-20T08:35:48;5.13;;;2.28;;
15055;SDS011;7626;42.674;23.284;2022-11-20T08:38:18;3.88;;;1.90;;
15055;SDS011;7626;42.674;23.284;2022-11-20T08:40:47;4.93;;;2.20;;
15055;SDS011;7626;42.674;23.284;2022-11-20T08:43:27;4.10;;;2.00;;
15055;SDS011;7626;42.674;23.284;2022-11-20T08:45:57;4.78;;;2.20;;
15055;SDS011;7626;42.674;23.284;2022-11-20T08:48:24;4.70;;;2.30;;
15055;SDS011;7626;42.674;23.284;2022-11-20T08:50:51;4.93;;;2.05;;
15055;SDS011;7626;42.674;23.284;2022-11-20T08:53:19;3.35;;;2.25;;
15055;SDS011;7626;42.674;23.284;2022-11-20T08:55:50;3.55;;;2.00;;
15055;SDS011;7626;42.674;23.284;2022-11-20T08:58:17;3.22;;;2.20;;
15055;SDS011;7626;42.674;23.284;2022-11-20T09:00:46;3.78;;;2.20;;
15055;SDS011;7626;42.674;23.284;2022-11-20T09:03:13;3.80;;;2.20;;
15055;SDS011;7626;42.674;23.284;2022-11-20T09:05:40;3.33;;;2.20;;
15055;SDS011;7626;42.674;23.284;2022-11-20T09:08:11;5.88;;;2.63;;
15055;SDS011;7626;42.674;23.284;2022-11-20T09:10:39;3.33;;;2.13;;
15055;SDS011;7626;42.674;23.284;2022-11-20T09:13:12;4.77;;;2.20;;
15055;SDS011;7626;42.674;23.284;2022-11-20T09:15:39;3.72;;;2.40;;
15055;SDS011;7626;42.674;23.284;2022-11-20T09:18:06;3.97;;;2.38;;
15055;SDS011;7626;42.674;23.284;2022-11-20T09:20:34;6.30;;;2.38;;
15055;SDS011;7626;42.674;23.284;2022-11-20T09:23:03;3.47;;;2.37;;
15055;SDS011;7626;42.674;23.284;2022-11-20T09:25:30;4.10;;;1.97;;
15055;SDS011;7626;42.674;23.284;2022-11-20T09:27:56;5.82;;;2.00;;
15055;SDS011;7626;42.674;23.284;2022-11-20T09:30:26;4.28;;;2.17;;
15055;SDS011;7626;42.674;23.284;2022-11-20T09:32:54;4.77;;;2.03;;
15055;SDS011;7626;42.674;23.284;2022-11-20T09:35:21;6.63;;;2.00;;
15055;SDS011;7626;42.674;23.284;2022-11-20T09:37:49;3.30;;;1.83;;
15055;SDS011;7626;42.674;23.284;2022-11-20T09:40:18;3.50;;;1.77;;
15055;SDS011;7626;42.674;23.284;2022-11-20T09:42:51;5.07;;;2.30;;
15055;SDS011;7626;42.674;23.284;2022-11-20T09:45:35;3.63;;;1.90;;
15055;SDS011;7626;42.674;23.284;2022-11-20T09:48:14;3.57;;;1.43;;
15055;SDS011;7626;42.674;23.284;2022-11-20T09:50:55;4.23;;;1.73;;
15055;SDS011;7626;42.674;23.284;2022-11-20T09:53:30;4.63;;;1.97;;
15055;SDS011;7626;42.674;23.284;2022-11-20T09:56:06;3.63;;;1.70;;
15055;SDS011;7626;42.674;23.284;2022-11-20T09:58:39;4.33;;;1.57;;
15055;SDS011;7626;42.674;23.284;2022-11-20T10:01:18;3.23;;;1.73;;
15055;SDS011;7626;42.674;23.284;2022-11-20T10:03:54;4.30;;;2.40;;
15055;SDS011;7626;42.674;23.284;2022-11-20T10:06:28;4.90;;;2.30;;
15055;SDS011;7626;42.674;23.284;2022-11-20T10:09:06;5.03;;;2.23;;
15055;SDS011;7626;42.674;23.284;2022-11-20T10:11:52;3.13;;;2.00;;
15055;SDS011;7626;42.674;23.284;2022-11-20T10:14:30;3.50;;;2.20;;
15055;SDS011;7626;42.674;23.284;2022-11-20T10:17:11;3.95;;;2.15;;
15055;SDS011;7626;42.674;23.284;2022-11-20T10:19:52;3.05;;;2.08;;
15055;SDS011;7626;42.674;23.284;2022-11-20T10:22:43;3.13;;;1.83;;
15055;SDS011;7626;42.674;23.284;2022-11-20T10:25:42;3.25;;;2.17;;
15055;SDS011;7626;42.674;23.284;2022-11-20T10:28:22;2.83;;;1.92;;
15055;SDS011;7626;42.674;23.284;2022-11-20T10:31:02;2.88;;;1.95;;
15055;SDS011;7626;42.674;23.284;2022-11-20T10:33:38;4.05;;;2.30;;
15055;SDS011;7626;42.674;23.284;2022-11-20T10:36:11;2.75;;;2.08;;
15055;SDS011;7626;42.674;23.284;2022-11-20T10:38:45;3.05;;;1.92;;
15055;SDS011;7626;42.674;23.284;2022-11-20T10:41:17;2.53;;;1.92;;
15055;SDS011;7626;42.674;23.284;2022-11-20T10:43:53;3.67;;;2.40;;
15055;SDS011;7626;42.674;23.284;2022-11-20T10:46:26;3.08;;;2.00;;
15055;SDS011;7626;42.674;23.284;2022-11-20T10:49:09;3.15;;;2.22;;
15055;SDS011;7626;42.674;23.284;2022-11-20T10:51:40;2.35;;;2.15;;
15055;SDS011;7626;42.674;23.284;2022-11-20T10:54:22;4.10;;;2.20;;
15055;SDS011;7626;42.674;23.284;2022-11-20T10:57:02;4.95;;;2.80;;
15055;SDS011;7626;42.674;23.284;2022-11-20T10:59:41;4.65;;;2.40;;
15055;SDS011;7626;42.674;23.284;2022-11-20T11:02:19;5.53;;;2.60;;
15055;SDS011;7626;42.674;23.284;2022-11-20T11:04:49;4.60;;;2.40;;
15055;SDS011;7626;42.674;23.284;2022-11-20T11:07:21;4.20;;;2.45;;
15055;SDS011;7626;42.674;23.284;2022-11-20T11:09:53;28.60;;;4.57;;
15055;SDS011;7626;42.674;23.284;2022-11-20T11:12:23;21.65;;;3.60;;
15055;SDS011;7626;42.674;23.284;2022-11-20T11:14:53;27.98;;;3.53;;
15055;SDS011;7626;42.674;23.284;2022-11-20T11:17:27;10.00;;;2.40;;
15055;SDS011;7626;42.674;23.284;2022-11-20T11:20:00;8.52;;;2.38;;
15055;SDS011;7626;42.674;23.284;2022-11-20T11:22:33;9.15;;;2.17;;
15055;SDS011;7626;42.674;23.284;2022-11-20T11:25:11;8.98;;;2.25;;
15055;SDS011;7626;42.674;23.284;2022-11-20T11:28:19;4.85;;;1.90;;
15055;SDS011;7626;42.674;23.284;2022-11-20T11:30:47;6.38;;;1.92;;
15055;SDS011;7626;42.674;23.284;2022-11-20T11:33:18;4.67;;;1.83;;
15055;SDS011;7626;42.674;23.284;2022-11-20T11:35:52;5.23;;;1.70;;
15055;SDS011;7626;42.674;23.284;2022-11-20T11:38:36;4.57;;;1.70;;
15055;SDS011;7626;42.674;23.284;2022-11-20T11:41:07;3.37;;;1.63;;
15055;SDS011;7626;42.674;23.284;2022-11-20T11:43:39;3.07;;;1.43;;
15055;SDS011;7626;42.674;23.284;2022-11-20T11:46:26;3.97;;;1.70;;
15055;SDS011;7626;42.674;23.284;2022-11-20T11:48:59;4.60;;;1.47;;
15055;SDS011;7626;42.674;23.284;2022-11-20T11:51:34;3.10;;;1.40;;
15055;SDS011;7626;42.674;23.284;2022-11-20T11:54:16;2.73;;;1.40;;
15055;SDS011;7626;42.674;23.284;2022-11-20T11:56:47;3.27;;;1.50;;
15055;SDS011;7626;42.674;23.284;2022-11-20T11:59:40;3.17;;;1.37;;
15055;SDS011;7626;42.674;23.284;2022-11-20T12:02:24;3.27;;;1.60;;
15055;SDS011;7626;42.674;23.284;2022-11-20T12:05:01;2.33;;;1.30;;
15055;SDS011;7626;42.674;23.284;2022-11-20T12:07:42;4.23;;;1.57;;
15055;SDS011;7626;42.674;23.284;2022-11-20T12:10:14;2.23;;;1.33;;
15055;SDS011;7626;42.674;23.284;2022-11-20T12:12:48;2.97;;;1.60;;
15055;SDS011;7626;42.674;23.284;2022-11-20T12:15:26;3.40;;;1.43;;
15055;SDS011;7626;42.674;23.284;2022-11-20T12:17:56;7.43;;;1.70;;
15055;SDS011;7626;42.674;23.284;2022-11-20T12:20:26;6.93;;;1.67;;
15055;SDS011;7626;42.674;23.284;2022-11-20T12:23:04;5.87;;;1.40;;
15055;SDS011;7626;42.674;23.284;2022-11-20T12:25:37;3.70;;;1.30;;
15055;SDS011;7626;42.674;23.284;2022-11-20T12:28:24;2.63;;;1.40;;
15055;SDS011;7626;42.674;23.284;2022-11-20T12:31:11;4.00;;;1.23;;
15055;SDS011;7626;42.674;23.284;2022-11-20T12:33:47;6.77;;;1.73;;
15055;SDS011;7626;42.674;23.284;2022-11-20T12:36:27;2.33;;;1.10;;
15055;SDS011;7626;42.674;23.284;2022-11-20T12:42:03;2.50;;;1.30;;
15055;SDS011;7626;42.674;23.284;2022-11-20T12:51:34;4.17;;;1.50;;
15055;SDS011;7626;42.674;23.284;2022-11-20T12:57:21;3.70;;;1.40;;
15055;SDS011;7626;42.674;23.284;2022-11-20T13:00:08;3.40;;;1.63;;
15055;SDS011;7626;42.674;23.284;2022-11-20T13:05:53;4.70;;;1.80;;
15055;SDS011;7626;42.674;23.284;2022-11-20T13:08:27;3.20;;;2.27;;
15055;SDS011;7626;42.674;23.284;2022-11-20T13:10:59;4.43;;;2.33;;
15055;SDS011;7626;42.674;23.284;2022-11-20T13:13:35;3.73;;;1.90;;
15055;SDS011;7626;42.674;23.284;2022-11-20T13:16:14;3.97;;;2.20;;
15055;SDS011;7626;42.674;23.284;2022-11-20T13:18:49;4.60;;;2.87;;
15055;SDS011;7626;42.674;23.284;2022-11-20T13:21:19;4.67;;;2.60;;
15055;SDS011;7626;42.674;23.284;2022-11-20T13:23:50;3.50;;;2.40;;
15055;SDS011;7626;42.674;23.284;2022-11-20T13:26:22;3.87;;;2.33;;
15055;SDS011;7626;42.674;23.284;2022-11-20T13:29:01;3.87;;;2.23;;
15055;SDS011;7626;42.674;23.284;2022-11-20T13:31:36;4.53;;;2.57;;
15055;SDS011;7626;42.674;23.284;2022-11-20T13:34:10;7.00;;;3.33;;
15055;SDS011;7626;42.674;23.284;2022-11-20T13:36:48;4.53;;;3.53;;
15055;SDS011;7626;42.674;23.284;2022-11-20T13:39:24;5.50;;;3.30;;
15055;SDS011;7626;42.674;23.284;2022-11-20T13:41:53;4.03;;;3.17;;
15055;SDS011;7626;42.674;23.284;2022-11-20T13:44:25;4.40;;;3.30;;
15055;SDS011;7626;42.674;23.284;2022-11-20T13:47:02;6.60;;;3.50;;
15055;SDS011;7626;42.674;23.284;2022-11-20T13:49:32;4.87;;;3.37;;
15055;SDS011;7626;42.674;23.284;2022-11-20T13:52:06;5.00;;;3.73;;
15055;SDS011;7626;42.674;23.284;2022-11-20T13:54:57;4.27;;;3.67;;
15055;SDS011;7626;42.674;23.284;2022-11-20T13:57:36;4.40;;;3.30;;
15055;SDS011;7626;42.674;23.284;2022-11-20T14:00:30;5.67;;;3.40;;
15055;SDS011;7626;42.674;23.284;2022-11-20T14:03:01;5.57;;;3.40;;
15055;SDS011;7626;42.674;23.284;2022-11-20T14:05:36;4.67;;;3.53;;
15055;SDS011;7626;42.674;23.284;2022-11-20T14:08:14;5.33;;;3.03;;
15055;SDS011;7626;42.674;23.284;2022-11-20T14:11:02;4.73;;;3.73;;
15055;SDS011;7626;42.674;23.284;2022-11-20T14:13:30;4.97;;;3.20;;
15055;SDS011;7626;42.674;23.284;2022-11-20T14:16:00;4.20;;;3.50;;
15055;SDS011;7626;42.674;23.284;2022-11-20T14:18:28;5.40;;;3.07;;
15055;SDS011;7626;42.674;23.284;2022-11-20T14:20:55;3.90;;;3.23;;
15055;SDS011;7626;42.674;23.284;2022-11-20T14:23:26;5.20;;;3.40;;
15055;SDS011;7626;42.674;23.284;2022-11-20T14:25:56;4.43;;;2.70;;
15055;SDS011;7626;42.674;23.284;2022-11-20T14:28:25;3.97;;;3.07;;
15055;SDS011;7626;42.674;23.284;2022-11-20T14:30:53;3.97;;;2.70;;
15055;SDS011;7626;42.674;23.284;2022-11-20T14:33:36;2.87;;;2.57;;
15055;SDS011;7626;42.674;23.284;2022-11-20T14:36:04;4.07;;;2.87;;
15055;SDS011;7626;42.674;23.284;2022-11-20T14:38:34;3.53;;;2.83;;
15055;SDS011;7626;42.674;23.284;2022-11-20T14:41:06;3.40;;;2.93;;
15055;SDS011;7626;42.674;23.284;2022-11-20T14:43:33;4.07;;;2.87;;
15055;SDS011;7626;42.674;23.284;2022-11-20T14:46:09;3.70;;;2.80;;
15055;SDS011;7626;42.674;23.284;2022-11-20T14:48:41;3.53;;;2.90;;
15055;SDS011;7626;42.674;23.284;2022-11-20T14:51:23;3.60;;;2.80;;
15055;SDS011;7626;42.674;23.284;2022-11-20T14:53:54;4.47;;;3.00;;
15055;SDS011;7626;42.674;23.284;2022-11-20T14:56:22;4.73;;;3.00;;
15055;SDS011;7626;42.674;23.284;2022-11-20T14:58:56;3.20;;;2.67;;
15055;SDS011;7626;42.674;23.284;2022-11-20T15:01:27;3.47;;;2.57;;
15055;SDS011;7626;42.674;23.284;2022-11-20T15:04:05;4.50;;;2.93;;
15055;SDS011;7626;42.674;23.284;2022-11-20T15:06:36;3.20;;;2.90;;
15055;SDS011;7626;42.674;23.284;2022-11-20T15:09:18;3.50;;;2.57;;
15055;SDS011;7626;42.674;23.284;2022-11-20T15:11:51;3.37;;;2.63;;
15055;SDS011;7626;42.674;23.284;2022-11-20T15:14:20;4.40;;;3.10;;
15055;SDS011;7626;42.674;23.284;2022-11-20T15:16:49;3.20;;;2.90;;
15055;SDS011;7626;42.674;23.284;2022-11-20T15:19:19;3.57;;;2.77;;
15055;SDS011;7626;42.674;23.284;2022-11-20T15:21:49;3.67;;;2.60;;
15055;SDS011;7626;42.674;23.284;2022-11-20T15:24:15;4.10;;;2.93;;
15055;SDS011;7626;42.674;23.284;2022-11-20T15:26:42;3.40;;;2.30;;